createdAt,value
2023-04-18T00:00:12.284Z,56.20
2023-04-18T00:02:40.966Z,56.30
2023-04-18T00:05:09.991Z,56.40
2023-04-18T00:07:38.426Z,56.40
2023-04-18T00:10:08.991Z,56.40
2023-04-18T00:12:37.527Z,56.40
2023-04-18T00:15:08.892Z,56.40
2023-04-18T00:17:38.592Z,56.40
2023-04-18T00:20:10.123Z,56.40
2023-04-18T00:22:42.627Z,56.40
2023-04-18T00:25:13.329Z,56.40
2023-04-18T00:27:43.086Z,56.40
2023-04-18T00:30:12.206Z,56.40
2023-04-18T00:32:40.595Z,56.40
2023-04-18T00:35:09.404Z,56.40
2023-04-18T00:37:38.319Z,56.30
2023-04-18T00:40:07.581Z,56.30
2023-04-18T00:42:37.321Z,56.30
2023-04-18T00:45:06.426Z,56.30
2023-04-18T00:47:34.920Z,56.40
2023-04-18T00:50:03.970Z,56.30
2023-04-18T00:52:34.103Z,56.40
2023-04-18T00:55:03.404Z,56.40
2023-04-18T00:57:32.173Z,56.50
2023-04-18T01:00:04.462Z,56.50
2023-04-18T01:02:36.061Z,57.10
2023-04-18T01:05:06.169Z,56.50
2023-04-18T01:07:37.416Z,56.50
2023-04-18T01:10:06.467Z,56.60
2023-04-18T01:12:34.820Z,56.60
2023-04-18T01:15:04.913Z,56.60
2023-04-18T01:17:35.670Z,56.70
2023-04-18T01:20:06.309Z,56.70
2023-04-18T01:22:34.799Z,56.70
2023-04-18T01:25:09.897Z,56.70
2023-04-18T01:27:38.286Z,56.70
2023-04-18T01:30:07.538Z,56.70
2023-04-18T01:32:36.008Z,56.70
2023-04-18T01:35:04.800Z,56.70
2023-04-18T01:37:36.414Z,56.80
2023-04-18T01:40:05.852Z,56.70
2023-04-18T01:42:35.865Z,56.70
2023-04-18T01:45:05.056Z,56.70
2023-04-18T01:47:35.363Z,56.80
2023-04-18T01:50:04.874Z,56.80
2023-04-18T01:52:33.340Z,56.80
2023-04-18T01:55:03.498Z,56.80
2023-04-18T01:57:32.182Z,56.80
2023-04-18T02:00:01.939Z,56.80
2023-04-18T02:02:31.089Z,56.80
2023-04-18T02:04:59.667Z,56.80
2023-04-18T02:07:28.097Z,56.80
2023-04-18T02:09:56.530Z,56.80
2023-04-18T02:12:25.376Z,56.80
2023-04-18T02:14:54.549Z,56.80
2023-04-18T02:17:25.360Z,56.70
2023-04-18T02:19:56.081Z,56.80
2023-04-18T02:22:24.936Z,56.70
2023-04-18T02:24:53.297Z,56.80
2023-04-18T02:27:21.777Z,56.80
2023-04-18T02:29:50.328Z,56.90
2023-04-18T02:32:18.790Z,56.90
2023-04-18T02:34:48.562Z,57.00
2023-04-18T02:37:18.356Z,57.00
2023-04-18T02:39:46.850Z,57.20
2023-04-18T02:42:16.059Z,57.30
2023-04-18T02:44:44.436Z,57.30
2023-04-18T02:47:12.882Z,57.40
2023-04-18T02:49:44.183Z,57.70
2023-04-18T02:52:14.939Z,57.90
2023-04-18T02:54:43.420Z,58.20
2023-04-18T02:57:17.028Z,58.20
2023-04-18T02:59:45.522Z,58.30
2023-04-18T03:02:14.032Z,58.40
2023-04-18T03:04:50.320Z,58.60
2023-04-18T03:07:20.054Z,59.00
2023-04-18T03:09:50.808Z,59.10
2023-04-18T03:12:24.677Z,59.30
2023-04-18T03:14:53.499Z,59.40
2023-04-18T03:17:23.132Z,59.80
2023-04-18T03:19:51.633Z,60.00
2023-04-18T03:22:23.209Z,60.20
2023-04-18T03:24:57.815Z,60.60
2023-04-18T03:27:42.877Z,61.20
2023-04-18T03:30:13.476Z,61.50
2023-04-18T03:32:44.057Z,61.90
2023-04-18T03:35:12.506Z,62.30
2023-04-18T03:37:42.473Z,62.80
2023-04-18T03:40:12.904Z,63.20
2023-04-18T03:42:42.631Z,63.60
2023-04-18T03:45:12.844Z,64.10
2023-04-18T03:47:41.998Z,64.70
2023-04-18T03:50:11.126Z,65.20
2023-04-18T03:52:42.580Z,65.50
2023-04-18T03:55:11.475Z,66.10
2023-04-18T03:57:41.298Z,66.30
2023-04-18T04:00:14.542Z,66.60
2023-04-18T04:02:53.936Z,67.00
2023-04-18T04:05:22.953Z,67.50
2023-04-18T04:07:53.500Z,67.90
2023-04-18T04:10:22.161Z,68.30
2023-04-18T04:12:51.516Z,68.80
2023-04-18T04:15:20.560Z,69.10
2023-04-18T04:17:54.823Z,69.60
2023-04-18T04:20:25.835Z,70.00
2023-04-18T04:23:03.874Z,70.30
2023-04-18T04:25:35.119Z,70.90
2023-04-18T04:28:09.187Z,71.20
2023-04-18T04:30:48.717Z,71.50
2023-04-18T04:33:17.901Z,72.00
2023-04-18T04:35:46.720Z,72.40
2023-04-18T04:38:16.808Z,72.80
2023-04-18T04:40:48.998Z,73.40
2023-04-18T04:43:20.678Z,74.20
2023-04-18T04:45:51.774Z,74.60
2023-04-18T04:48:25.067Z,75.00
2023-04-18T04:50:56.546Z,75.40
2023-04-18T04:53:30.370Z,75.80
2023-04-18T04:56:00.275Z,76.20
2023-04-18T04:58:29.301Z,76.50
2023-04-18T05:04:14.282Z,77.30
2023-04-18T05:06:43.426Z,77.30
2023-04-18T05:09:13.659Z,77.40
2023-04-18T05:11:42.058Z,77.40
2023-04-18T05:14:10.585Z,77.70
2023-04-18T05:16:39.143Z,78.30
2023-04-18T05:19:07.598Z,78.90
2023-04-18T05:21:36.156Z,79.60
2023-04-18T05:24:13.871Z,80.20
2023-04-18T05:26:44.770Z,80.90
2023-04-18T05:29:13.256Z,81.60
2023-04-18T05:34:27.205Z,82.50
2023-04-18T05:36:55.604Z,82.80
2023-04-18T05:39:24.060Z,83.00
2023-04-18T05:41:53.783Z,83.60
2023-04-18T05:44:24.271Z,84.40
2023-04-18T05:46:52.741Z,84.50
2023-04-18T05:49:21.342Z,84.70
2023-04-18T05:51:50.048Z,84.70
2023-04-18T05:54:18.491Z,85.10
2023-04-18T05:56:46.896Z,85.40
2023-04-18T05:59:16.769Z,85.40
2023-04-18T06:01:45.170Z,85.90
2023-04-18T06:04:14.186Z,86.60
2023-04-18T06:06:43.302Z,87.40
2023-04-18T06:09:11.939Z,88.20
2023-04-18T06:11:40.343Z,88.90
2023-04-18T06:14:08.700Z,89.70
2023-04-18T06:16:39.219Z,89.90
2023-04-18T06:19:07.750Z,90.00
2023-04-18T06:21:36.159Z,90.10
2023-04-18T06:24:04.671Z,89.90
2023-04-18T06:26:33.078Z,89.90
2023-04-18T06:29:01.583Z,90.20
2023-04-18T06:31:30.028Z,90.20
2023-04-18T06:33:59.828Z,90.30
2023-04-18T06:36:28.659Z,90.30
2023-04-18T06:38:57.025Z,91.00
2023-04-18T06:41:25.509Z,90.90
2023-04-18T06:44:14.597Z,91.20
2023-04-18T06:46:42.483Z,91.70
2023-04-18T06:49:12.355Z,92.40
2023-04-18T06:51:40.730Z,93.40
2023-04-18T06:54:09.145Z,93.60
2023-04-18T06:56:37.692Z,94.00
2023-04-18T06:59:06.270Z,94.50
2023-04-18T07:01:35.011Z,94.50
2023-04-18T07:04:03.525Z,94.10
2023-04-18T07:06:33.993Z,93.60
2023-04-18T07:09:02.420Z,93.00
2023-04-18T07:11:30.822Z,92.00
2023-04-18T07:13:59.251Z,90.70
2023-04-18T07:16:27.822Z,89.50
2023-04-18T07:18:56.265Z,87.30
2023-04-18T07:21:25.010Z,85.50
2023-04-18T07:23:54.832Z,84.00
2023-04-18T07:26:23.354Z,82.80
2023-04-18T07:28:51.775Z,82.30
2023-04-18T07:31:20.289Z,82.50
2023-04-18T07:33:48.847Z,83.00
2023-04-18T07:36:17.164Z,83.40
2023-04-18T07:38:46.506Z,84.00
2023-04-18T07:41:16.310Z,84.60
2023-04-18T07:43:44.949Z,84.60
2023-04-18T07:46:13.479Z,84.80
2023-04-18T07:48:42.060Z,84.70
2023-04-18T07:51:10.578Z,84.80
2023-04-18T07:53:41.231Z,85.10
2023-04-18T07:56:09.771Z,86.90
2023-04-18T07:58:39.712Z,89.30
2023-04-18T08:01:13.538Z,90.20
2023-04-18T08:03:42.385Z,90.20
2023-04-18T08:06:11.166Z,88.00
2023-04-18T08:08:39.741Z,85.80
2023-04-18T08:11:08.268Z,83.40
2023-04-18T08:13:36.757Z,81.20
2023-04-18T08:16:06.866Z,79.90
2023-04-18T08:18:35.281Z,79.00
2023-04-18T08:21:03.722Z,77.60
2023-04-18T08:23:32.062Z,75.20
2023-04-18T08:26:00.576Z,73.00
2023-04-18T08:28:29.011Z,71.50
2023-04-18T08:30:57.451Z,70.20
2023-04-18T08:33:28.401Z,69.10
2023-04-18T08:35:56.963Z,68.30
2023-04-18T08:38:25.282Z,67.80
2023-04-18T08:40:53.631Z,67.10
2023-04-18T08:43:22.035Z,66.50
2023-04-18T08:45:50.829Z,66.00
2023-04-18T08:48:19.889Z,66.00
2023-04-18T08:50:49.573Z,65.40
2023-04-18T08:53:18.582Z,64.80
2023-04-18T08:55:50.594Z,64.30
2023-04-18T08:58:23.472Z,65.30
2023-04-18T09:00:53.016Z,66.50
2023-04-18T09:03:39.718Z,67.10
2023-04-18T09:06:12.510Z,68.60
2023-04-18T09:08:43.895Z,68.90
2023-04-18T09:11:29.874Z,66.30
2023-04-18T09:13:59.495Z,63.40
2023-04-18T09:16:29.365Z,61.10
2023-04-18T09:19:15.049Z,59.30
2023-04-18T09:21:46.331Z,55.50
2023-04-18T09:24:24.462Z,52.90
2023-04-18T09:26:55.972Z,51.60
2023-04-18T09:29:42.334Z,51.20
2023-04-18T09:32:11.486Z,51.10
2023-04-18T09:34:43.692Z,51.70
2023-04-18T09:37:15.473Z,51.90
2023-04-18T09:39:45.557Z,52.10
2023-04-18T09:42:15.020Z,52.20
2023-04-18T09:45:00.886Z,52.00
2023-04-18T09:47:29.637Z,51.90
2023-04-18T09:49:58.133Z,52.10
2023-04-18T09:52:33.146Z,52.10
2023-04-18T09:55:04.756Z,51.70
2023-04-18T09:57:34.684Z,51.50
2023-04-18T10:00:14.350Z,51.60
2023-04-18T10:02:50.021Z,51.70
2023-04-18T10:05:21.205Z,51.80
2023-04-18T10:07:52.179Z,52.20
2023-04-18T10:10:21.109Z,52.00
2023-04-18T10:12:50.933Z,51.90
2023-04-18T10:15:21.337Z,52.10
2023-04-18T10:18:04.289Z,51.40
2023-04-18T10:20:35.947Z,50.60
2023-04-18T10:23:43.229Z,49.40
2023-04-18T10:26:13.138Z,48.60
2023-04-18T10:28:54.913Z,48.00
2023-04-18T10:31:24.411Z,48.00
2023-04-18T10:34:04.628Z,47.80
2023-04-18T10:36:34.596Z,47.70
2023-04-18T10:39:20.558Z,47.90
2023-04-18T10:41:52.440Z,47.60
2023-04-18T10:44:22.906Z,47.40
2023-04-18T10:47:21.072Z,47.20
2023-04-18T10:50:01.293Z,47.10
2023-04-18T10:52:30.610Z,47.00
2023-04-18T10:55:20.405Z,46.30
2023-04-18T10:57:51.896Z,46.20
2023-04-18T11:00:22.033Z,46.30
2023-04-18T11:02:54.222Z,46.40
2023-04-18T11:05:24.887Z,46.50
2023-04-18T11:07:53.906Z,46.60
2023-04-18T11:10:24.617Z,46.50
2023-04-18T11:12:55.683Z,46.30
2023-04-18T11:15:25.578Z,46.10
2023-04-18T11:17:59.184Z,45.90
2023-04-18T11:20:27.932Z,45.80
2023-04-18T11:22:58.152Z,45.70
2023-04-18T11:25:29.367Z,45.70
2023-04-18T11:28:02.037Z,45.90
2023-04-18T11:30:38.026Z,46.10
2023-04-18T11:33:08.692Z,46.50
2023-04-18T11:35:41.337Z,46.60
2023-04-18T11:38:13.988Z,46.60
2023-04-18T11:40:49.527Z,46.70
2023-04-18T11:43:24.189Z,46.90
2023-04-18T11:45:54.636Z,46.60
2023-04-18T11:48:23.668Z,47.10
2023-04-18T11:50:52.126Z,46.30
2023-04-18T11:53:34.663Z,46.10
2023-04-18T11:56:03.957Z,46.20
2023-04-18T11:58:34.274Z,46.20
2023-04-18T12:01:17.287Z,47.00
2023-04-18T12:03:46.367Z,46.50
2023-04-18T12:06:15.132Z,46.10
2023-04-18T12:08:45.138Z,46.00
2023-04-18T12:11:21.631Z,46.20
2023-04-18T12:13:51.981Z,47.40
2023-04-18T12:16:20.458Z,48.00
2023-04-18T12:18:48.957Z,47.70
2023-04-18T12:21:17.866Z,47.70
2023-04-18T12:23:46.505Z,44.40
2023-04-18T12:26:18.296Z,44.70
2023-04-18T12:28:48.150Z,44.50
2023-04-18T12:31:17.936Z,43.00
2023-04-18T12:33:46.409Z,41.30
2023-04-18T12:36:14.802Z,40.30
2023-04-18T12:38:43.270Z,39.40
2023-04-18T12:41:11.716Z,39.00
2023-04-18T12:43:40.158Z,39.50
2023-04-18T12:46:08.563Z,40.00
2023-04-18T12:48:38.337Z,38.60
2023-04-18T12:51:07.192Z,37.70
2023-04-18T12:53:35.644Z,37.20
2023-04-18T12:56:04.116Z,36.70
2023-04-18T12:58:32.586Z,36.20
2023-04-18T13:01:01.160Z,35.60
2023-04-18T13:03:29.757Z,35.50
2023-04-18T13:05:59.590Z,35.10
2023-04-18T13:08:28.093Z,35.10
2023-04-18T13:10:56.444Z,35.40
2023-04-18T13:13:24.915Z,35.90
2023-04-18T13:15:53.410Z,36.00
2023-04-18T13:18:21.831Z,35.90
2023-04-18T13:20:50.778Z,36.00
2023-04-18T13:23:20.466Z,35.30
2023-04-18T13:25:48.859Z,34.40
2023-04-18T13:28:17.261Z,33.90
2023-04-18T13:30:45.701Z,33.90
2023-04-18T13:33:15.649Z,34.10
2023-04-18T13:35:44.180Z,34.30
2023-04-18T13:38:12.521Z,34.40
2023-04-18T13:40:42.420Z,35.50
2023-04-18T13:43:13.006Z,35.40
2023-04-18T13:45:41.444Z,36.10
2023-04-18T13:48:09.951Z,36.80
2023-04-18T13:50:38.346Z,37.00
2023-04-18T13:53:06.831Z,36.10
2023-04-18T13:55:35.628Z,34.80
2023-04-18T13:58:05.976Z,34.60
2023-04-18T14:00:35.580Z,34.80
2023-04-18T14:03:04.074Z,35.40
2023-04-18T14:05:32.977Z,35.20
2023-04-18T14:08:04.213Z,35.40
2023-04-18T14:10:32.847Z,34.90
2023-04-18T14:13:01.758Z,35.00
2023-04-18T14:15:33.183Z,34.70
2023-04-18T14:18:02.057Z,33.90
2023-04-18T14:20:34.621Z,33.50
2023-04-18T14:23:03.062Z,33.00
2023-04-18T14:25:31.826Z,32.50
2023-04-18T14:28:09.243Z,32.90
2023-04-18T14:30:40.636Z,33.30
2023-04-18T14:33:10.378Z,33.70
2023-04-18T14:35:38.954Z,33.70
2023-04-18T14:38:07.674Z,33.90
2023-04-18T14:40:36.336Z,33.90
2023-04-18T14:43:04.728Z,33.90
2023-04-18T14:45:34.988Z,34.40
2023-04-18T14:48:06.859Z,34.60
2023-04-18T14:50:38.748Z,34.90
2023-04-18T14:53:07.710Z,35.90
2023-04-18T14:55:36.245Z,35.70
2023-04-18T14:58:04.777Z,35.90
2023-04-18T15:00:33.418Z,35.80
2023-04-18T15:03:02.190Z,36.00
2023-04-18T15:05:32.188Z,36.10
2023-04-18T15:08:01.295Z,36.40
2023-04-18T15:10:29.833Z,36.70
2023-04-18T15:12:58.316Z,37.10
2023-04-18T15:15:26.860Z,37.60
2023-04-18T15:17:55.398Z,38.00
2023-04-18T15:20:24.171Z,38.40
2023-04-18T15:22:53.931Z,38.70
2023-04-18T15:25:22.399Z,39.00
2023-04-18T15:27:50.722Z,39.20
2023-04-18T15:30:19.348Z,40.20
2023-04-18T15:32:48.560Z,39.80
2023-04-18T15:35:17.313Z,39.90
2023-04-18T15:37:45.923Z,40.80
2023-04-18T15:40:18.421Z,41.50
2023-04-18T15:42:49.454Z,42.70
2023-04-18T15:45:18.618Z,43.60
2023-04-18T15:47:47.283Z,44.30
2023-04-18T15:50:16.325Z,45.40
2023-04-18T15:52:45.421Z,46.20
2023-04-18T15:55:15.768Z,46.00
2023-04-18T15:57:44.184Z,46.40
2023-04-18T16:00:16.013Z,46.30
2023-04-18T16:02:45.237Z,45.70
2023-04-18T16:05:15.468Z,45.10
2023-04-18T16:07:44.912Z,44.90
2023-04-18T16:10:15.269Z,45.30
2023-04-18T16:12:45.185Z,45.00
2023-04-18T16:15:14.391Z,46.30
2023-04-18T16:17:42.924Z,45.90
2023-04-18T16:20:11.801Z,45.90
2023-04-18T16:22:40.196Z,45.50
2023-04-18T16:25:09.676Z,45.30
2023-04-18T16:27:38.082Z,45.40
2023-04-18T16:30:10.171Z,45.40
2023-04-18T16:32:39.246Z,45.80
2023-04-18T16:35:10.298Z,46.10
2023-04-18T16:37:38.876Z,46.70
2023-04-18T16:40:10.119Z,46.50
2023-04-18T16:42:39.938Z,46.70
2023-04-18T16:45:10.142Z,46.70
2023-04-18T16:47:38.583Z,46.60
2023-04-18T16:50:08.124Z,46.40
2023-04-18T16:52:36.488Z,46.70
2023-04-18T16:55:05.205Z,46.70
2023-04-18T16:57:33.760Z,46.90
2023-04-18T17:00:03.100Z,47.10
2023-04-18T17:02:33.027Z,47.00
2023-04-18T17:05:01.656Z,46.80
2023-04-18T17:07:30.605Z,46.70
2023-04-18T17:09:59.051Z,46.70
2023-04-18T17:12:27.624Z,46.80
2023-04-18T17:14:57.211Z,47.10
2023-04-18T17:17:25.673Z,47.00
2023-04-18T17:19:55.540Z,47.00
2023-04-18T17:22:23.941Z,47.10
2023-04-18T17:24:52.430Z,47.30
2023-04-18T17:27:20.806Z,47.40
2023-04-18T17:29:49.186Z,47.50
2023-04-18T17:32:17.869Z,47.70
2023-04-18T17:34:46.252Z,47.80
2023-04-18T17:37:17.311Z,47.90
2023-04-18T17:39:45.770Z,48.10
2023-04-18T17:42:14.177Z,48.20
2023-04-18T17:44:42.523Z,48.20
2023-04-18T17:47:11.018Z,48.20
2023-04-18T17:49:40.111Z,48.20
2023-04-18T17:52:08.475Z,48.30
2023-04-18T17:54:38.325Z,48.50
2023-04-18T17:57:06.816Z,48.50
2023-04-18T17:59:38.148Z,48.70
2023-04-18T18:02:06.901Z,48.80
2023-04-18T18:04:35.545Z,49.00
2023-04-18T18:07:04.181Z,49.10
2023-04-18T18:09:32.663Z,49.40
2023-04-18T18:12:02.624Z,49.40
2023-04-18T18:14:31.116Z,49.40
2023-04-18T18:16:59.626Z,49.40
2023-04-18T18:19:28.109Z,49.40
2023-04-18T18:21:56.594Z,49.30
2023-04-18T18:24:26.234Z,49.40
2023-04-18T18:26:54.715Z,49.40
2023-04-18T18:29:24.570Z,49.40
2023-04-18T18:31:53.095Z,49.40
2023-04-18T18:34:21.979Z,49.40
2023-04-18T18:36:52.229Z,49.50
2023-04-18T18:39:20.685Z,49.60
2023-04-18T18:41:49.179Z,49.70
2023-04-18T18:44:17.510Z,49.90
2023-04-18T18:46:47.226Z,50.00
2023-04-18T18:49:15.831Z,50.20
2023-04-18T18:51:44.637Z,50.60
2023-04-18T18:54:13.378Z,50.90
2023-04-18T18:56:42.789Z,51.20
2023-04-18T18:59:11.280Z,51.40
2023-04-18T19:01:39.690Z,51.50
2023-04-18T19:04:09.602Z,51.70
2023-04-18T19:06:38.118Z,51.90
2023-04-18T19:09:07.221Z,52.10
2023-04-18T19:11:35.702Z,52.10
2023-04-18T19:14:04.106Z,52.10
2023-04-18T19:16:34.132Z,52.30
2023-04-18T19:19:02.699Z,52.30
2023-04-18T19:21:32.510Z,52.40
2023-04-18T19:24:01.185Z,52.40
2023-04-18T19:26:29.690Z,52.70
2023-04-18T19:28:58.230Z,52.70
2023-04-18T19:31:26.761Z,52.80
2023-04-18T19:33:55.260Z,52.90
2023-04-18T19:36:23.730Z,53.00
2023-04-18T19:38:53.463Z,53.00
2023-04-18T19:41:21.939Z,53.10
2023-04-18T19:43:51.438Z,53.40
2023-04-18T19:46:19.878Z,53.20
2023-04-18T19:48:48.387Z,53.30
2023-04-18T19:51:16.856Z,53.40
2023-04-18T19:53:45.247Z,53.40
2023-04-18T19:56:15.121Z,53.40
2023-04-18T19:58:49.138Z,53.40
2023-04-18T20:01:19.414Z,53.50
2023-04-18T20:03:48.522Z,53.70
2023-04-18T20:06:18.161Z,53.60
2023-04-18T20:08:46.766Z,53.70
2023-04-18T20:11:16.514Z,53.60
2023-04-18T20:13:44.745Z,53.60
2023-04-18T20:16:13.422Z,53.60
2023-04-18T20:18:44.244Z,53.60
2023-04-18T20:21:12.849Z,53.50
2023-04-18T20:23:42.737Z,53.40
2023-04-18T20:26:11.357Z,53.30
2023-04-18T20:28:41.145Z,53.10
2023-04-18T20:31:09.931Z,53.10
2023-04-18T20:33:38.574Z,53.00
2023-04-18T20:36:07.653Z,52.80
2023-04-18T20:38:36.931Z,53.40
2023-04-18T20:41:05.457Z,52.90
2023-04-18T20:43:36.738Z,52.80
2023-04-18T20:46:06.950Z,53.50
2023-04-18T20:48:35.631Z,53.00
2023-04-18T20:51:04.049Z,53.20
2023-04-18T20:53:32.505Z,53.20
2023-04-18T20:56:02.939Z,53.20
2023-04-18T20:58:31.341Z,53.30
2023-04-18T21:00:59.667Z,53.80
2023-04-18T21:03:29.542Z,53.80
2023-04-18T21:05:58.056Z,53.80
2023-04-18T21:08:26.446Z,53.70
2023-04-18T21:10:54.838Z,53.70
2023-04-18T21:13:23.229Z,53.70
2023-04-18T21:15:52.148Z,53.60
2023-04-18T21:18:20.912Z,53.40
2023-04-18T21:20:50.814Z,53.20
2023-04-18T21:23:19.257Z,53.10
2023-04-18T21:25:47.727Z,53.00
2023-04-18T21:28:16.336Z,52.90
2023-04-18T21:30:44.815Z,53.30
2023-04-18T21:33:13.420Z,52.60
2023-04-18T21:35:41.978Z,52.70
2023-04-18T21:38:11.655Z,52.70
2023-04-18T21:40:40.015Z,52.70
2023-04-18T21:43:08.325Z,52.80
2023-04-18T21:45:36.685Z,52.80
2023-04-18T21:48:05.918Z,52.90
2023-04-18T21:50:34.373Z,52.90
2023-04-18T21:53:02.735Z,53.00
2023-04-18T21:55:32.416Z,53.10
2023-04-18T21:58:01.029Z,53.10
2023-04-18T22:00:29.383Z,53.20
2023-04-18T22:02:57.987Z,53.30
2023-04-18T22:05:28.041Z,53.40
2023-04-18T22:07:58.507Z,53.80
2023-04-18T22:10:27.385Z,53.70
2023-04-18T22:12:57.678Z,53.70
2023-04-18T22:15:27.325Z,53.80
2023-04-18T22:17:56.399Z,53.70
2023-04-18T22:20:26.987Z,54.70
2023-04-18T22:22:55.839Z,54.10
2023-04-18T22:25:24.457Z,54.20
2023-04-18T22:27:52.911Z,54.50
2023-04-18T22:30:23.015Z,54.50
2023-04-18T22:32:51.505Z,55.30
2023-04-18T22:35:20.106Z,55.40
2023-04-18T22:37:48.718Z,55.40
2023-04-18T22:40:17.507Z,55.60
2023-04-18T22:42:45.943Z,55.60
2023-04-18T22:45:14.747Z,55.50
2023-04-18T22:47:44.483Z,54.70
2023-04-18T22:50:13.335Z,54.60
2023-04-18T22:52:41.802Z,54.50
2023-04-18T22:55:10.918Z,54.50
2023-04-18T22:57:39.732Z,54.50
2023-04-18T23:00:10.307Z,54.50
2023-04-18T23:02:38.910Z,54.50
2023-04-18T23:05:10.953Z,54.50
2023-04-18T23:07:39.339Z,54.50
2023-04-18T23:10:08.851Z,55.30
2023-04-18T23:12:37.259Z,55.40
2023-04-18T23:15:06.927Z,55.50
2023-04-18T23:17:36.035Z,55.60
2023-04-18T23:20:07.230Z,55.60
2023-04-18T23:22:38.524Z,55.70
2023-04-18T23:25:07.191Z,55.80
2023-04-18T23:27:35.624Z,55.90
2023-04-18T23:30:04.062Z,55.90
2023-04-18T23:32:32.550Z,56.00
2023-04-18T23:35:04.330Z,56.10
2023-04-18T23:37:32.874Z,56.70
2023-04-18T23:40:05.156Z,56.30
2023-04-18T23:42:35.440Z,56.30
2023-04-18T23:45:05.935Z,56.40
2023-04-18T23:47:34.615Z,56.50
2023-04-18T23:50:03.208Z,56.50
2023-04-18T23:52:31.613Z,56.50
2023-04-18T23:55:02.641Z,56.50
2023-04-18T23:57:31.135Z,56.50
2023-04-18T23:59:59.654Z,56.50
